sensor_id;sensor_type;location;lat;lon;timestamp;pressure;altitude;pressure_sealevel;temperature;humidity
71559;BME280;59382;43.852;25.952;2022-07-06T00:01:50;100892.13;;;29.59;37.67
71559;BME280;59382;43.852;25.952;2022-07-06T00:04:17;100908.53;;;29.52;37.69
71559;BME280;59382;43.852;25.952;2022-07-06T00:06:43;100903.78;;;29.44;37.99
71559;BME280;59382;43.852;25.952;2022-07-06T00:09:08;100929.13;;;29.51;37.96
71559;BME280;59382;43.852;25.952;2022-07-06T00:11:34;100919.03;;;29.38;38.22
71559;BME280;59382;43.852;25.952;2022-07-06T00:14:00;100901.91;;;29.19;38.27
71559;BME280;59382;43.852;25.952;2022-07-06T00:16:25;100907.50;;;29.10;38.80
71559;BME280;59382;43.852;25.952;2022-07-06T00:18:51;100894.59;;;29.06;38.45
71559;BME280;59382;43.852;25.952;2022-07-06T00:21:17;100910.91;;;29.16;38.45
71559;BME280;59382;43.852;25.952;2022-07-06T00:23:43;100904.69;;;29.19;38.49
71559;BME280;59382;43.852;25.952;2022-07-06T00:26:09;100907.97;;;29.21;38.40
71559;BME280;59382;43.852;25.952;2022-07-06T00:28:34;100904.38;;;29.12;38.41
71559;BME280;59382;43.852;25.952;2022-07-06T00:31:00;100910.09;;;29.15;38.33
71559;BME280;59382;43.852;25.952;2022-07-06T00:33:25;100897.19;;;29.11;38.36
71559;BME280;59382;43.852;25.952;2022-07-06T00:35:54;100912.41;;;29.13;38.21
71559;BME280;59382;43.852;25.952;2022-07-06T00:38:20;100907.63;;;29.14;38.29
71559;BME280;59382;43.852;25.952;2022-07-06T00:40:46;100908.94;;;29.08;38.30
71559;BME280;59382;43.852;25.952;2022-07-06T00:43:12;100908.63;;;29.01;38.73
71559;BME280;59382;43.852;25.952;2022-07-06T00:45:38;100913.84;;;28.94;39.32
71559;BME280;59382;43.852;25.952;2022-07-06T00:48:03;100910.28;;;28.85;39.75
71559;BME280;59382;43.852;25.952;2022-07-06T00:50:29;100899.81;;;28.73;40.29
71559;BME280;59382;43.852;25.952;2022-07-06T00:52:59;100906.84;;;28.71;40.71
71559;BME280;59382;43.852;25.952;2022-07-06T00:55:27;100906.38;;;28.69;41.00
71559;BME280;59382;43.852;25.952;2022-07-06T00:57:54;100895.22;;;28.60;41.10
71559;BME280;59382;43.852;25.952;2022-07-06T01:00:23;100893.75;;;28.54;41.57
71559;BME280;59382;43.852;25.952;2022-07-06T01:02:50;100888.53;;;28.52;42.30
71559;BME280;59382;43.852;25.952;2022-07-06T01:05:16;100906.34;;;28.51;43.00
71559;BME280;59382;43.852;25.952;2022-07-06T01:07:44;100900.91;;;28.29;44.11
71559;BME280;59382;43.852;25.952;2022-07-06T01:10:12;100901.06;;;28.24;44.21
71559;BME280;59382;43.852;25.952;2022-07-06T01:12:39;100899.75;;;28.13;44.87
71559;BME280;59382;43.852;25.952;2022-07-06T01:15:08;100901.69;;;28.04;46.13
71559;BME280;59382;43.852;25.952;2022-07-06T01:17:34;100910.78;;;27.96;46.00
71559;BME280;59382;43.852;25.952;2022-07-06T01:20:15;100906.16;;;27.83;46.84
71559;BME280;59382;43.852;25.952;2022-07-06T01:22:42;100908.25;;;27.78;47.21
71559;BME280;59382;43.852;25.952;2022-07-06T01:25:08;100902.19;;;27.67;47.27
71559;BME280;59382;43.852;25.952;2022-07-06T01:27:35;100910.53;;;27.76;47.47
71559;BME280;59382;43.852;25.952;2022-07-06T01:30:08;100915.94;;;27.81;47.78
71559;BME280;59382;43.852;25.952;2022-07-06T01:32:35;100901.09;;;27.85;47.86
71559;BME280;59382;43.852;25.952;2022-07-06T01:35:01;100890.16;;;27.80;47.98
71559;BME280;59382;43.852;25.952;2022-07-06T01:37:26;100893.34;;;27.65;48.19
71559;BME280;59382;43.852;25.952;2022-07-06T01:39:52;100889.91;;;27.60;48.69
71559;BME280;59382;43.852;25.952;2022-07-06T01:42:18;100887.31;;;27.63;48.62
71559;BME280;59382;43.852;25.952;2022-07-06T01:44:44;100883.34;;;27.56;48.57
71559;BME280;59382;43.852;25.952;2022-07-06T01:47:10;100891.19;;;27.54;49.12
71559;BME280;59382;43.852;25.952;2022-07-06T01:49:36;100893.00;;;27.58;48.59
71559;BME280;59382;43.852;25.952;2022-07-06T01:52:02;100892.06;;;27.71;48.94
71559;BME280;59382;43.852;25.952;2022-07-06T01:54:28;100900.41;;;27.80;48.20
71559;BME280;59382;43.852;25.952;2022-07-06T01:56:54;100885.06;;;27.74;48.29
71559;BME280;59382;43.852;25.952;2022-07-06T01:59:20;100883.88;;;27.66;48.17
71559;BME280;59382;43.852;25.952;2022-07-06T02:01:45;100890.91;;;27.64;48.66
71559;BME280;59382;43.852;25.952;2022-07-06T02:04:11;100875.81;;;27.39;48.66
71559;BME280;59382;43.852;25.952;2022-07-06T02:06:36;100891.66;;;27.47;49.03
71559;BME280;59382;43.852;25.952;2022-07-06T02:09:03;100885.75;;;27.40;49.06
71559;BME280;59382;43.852;25.952;2022-07-06T02:11:29;100895.56;;;27.46;48.87
71559;BME280;59382;43.852;25.952;2022-07-06T02:13:54;100880.72;;;27.42;48.78
71559;BME280;59382;43.852;25.952;2022-07-06T02:16:20;100896.00;;;27.40;49.31
71559;BME280;59382;43.852;25.952;2022-07-06T02:18:46;100902.19;;;27.37;49.34
71559;BME280;59382;43.852;25.952;2022-07-06T02:21:11;100895.47;;;27.29;49.61
71559;BME280;59382;43.852;25.952;2022-07-06T02:23:37;100902.25;;;27.23;49.43
71559;BME280;59382;43.852;25.952;2022-07-06T02:26:02;100883.06;;;27.05;50.44
71559;BME280;59382;43.852;25.952;2022-07-06T02:28:29;100895.63;;;27.02;50.47
71559;BME280;59382;43.852;25.952;2022-07-06T02:30:55;100903.41;;;27.00;51.01
71559;BME280;59382;43.852;25.952;2022-07-06T02:33:21;100900.91;;;26.90;51.09
71559;BME280;59382;43.852;25.952;2022-07-06T02:35:49;100894.22;;;26.91;51.58
71559;BME280;59382;43.852;25.952;2022-07-06T02:38:15;100892.41;;;26.87;51.19
71559;BME280;59382;43.852;25.952;2022-07-06T02:40:40;100902.66;;;26.86;51.69
71559;BME280;59382;43.852;25.952;2022-07-06T02:43:06;100907.81;;;26.79;51.58
71559;BME280;59382;43.852;25.952;2022-07-06T02:45:32;100910.06;;;26.77;52.17
71559;BME280;59382;43.852;25.952;2022-07-06T02:48:12;100895.34;;;26.68;52.18
71559;BME280;59382;43.852;25.952;2022-07-06T02:50:53;100894.34;;;26.86;52.62
71559;BME280;59382;43.852;25.952;2022-07-06T02:53:36;100899.38;;;26.84;51.82
71559;BME280;59382;43.852;25.952;2022-07-06T02:56:02;100900.66;;;26.78;52.15
71559;BME280;59382;43.852;25.952;2022-07-06T02:58:34;100900.66;;;26.78;52.69
71559;BME280;59382;43.852;25.952;2022-07-06T03:01:10;100903.72;;;26.76;52.55
71559;BME280;59382;43.852;25.952;2022-07-06T03:03:41;100899.00;;;26.77;52.35
71559;BME280;59382;43.852;25.952;2022-07-06T03:06:10;100895.75;;;26.75;52.39
71559;BME280;59382;43.852;25.952;2022-07-06T03:08:36;100908.88;;;26.69;52.53
71559;BME280;59382;43.852;25.952;2022-07-06T03:11:02;100897.22;;;26.59;52.93
71559;BME280;59382;43.852;25.952;2022-07-06T03:13:27;100903.38;;;26.56;53.33
71559;BME280;59382;43.852;25.952;2022-07-06T03:15:54;100905.16;;;26.60;53.14
71559;BME280;59382;43.852;25.952;2022-07-06T03:18:20;100904.38;;;26.60;53.16
71559;BME280;59382;43.852;25.952;2022-07-06T03:20:46;100912.09;;;26.63;52.93
71559;BME280;59382;43.852;25.952;2022-07-06T03:23:11;100914.22;;;26.66;53.27
71559;BME280;59382;43.852;25.952;2022-07-06T03:25:37;100895.81;;;26.48;53.08
71559;BME280;59382;43.852;25.952;2022-07-06T03:28:03;100912.78;;;26.68;53.33
71559;BME280;59382;43.852;25.952;2022-07-06T03:30:29;100903.31;;;26.69;53.42
71559;BME280;59382;43.852;25.952;2022-07-06T03:32:54;100894.66;;;26.62;53.55
71559;BME280;59382;43.852;25.952;2022-07-06T03:35:20;100903.63;;;26.68;53.45
71559;BME280;59382;43.852;25.952;2022-07-06T03:37:48;100897.09;;;26.64;53.28
71559;BME280;59382;43.852;25.952;2022-07-06T03:40:13;100917.88;;;26.75;53.08
71559;BME280;59382;43.852;25.952;2022-07-06T03:42:40;100898.63;;;26.70;53.22
71559;BME280;59382;43.852;25.952;2022-07-06T03:45:06;100912.28;;;26.89;53.43
71559;BME280;59382;43.852;25.952;2022-07-06T03:47:32;100903.03;;;26.93;53.05
71559;BME280;59382;43.852;25.952;2022-07-06T03:49:57;100897.97;;;27.17;52.69
71559;BME280;59382;43.852;25.952;2022-07-06T03:52:23;100905.13;;;27.32;52.28
71559;BME280;59382;43.852;25.952;2022-07-06T03:54:48;100887.66;;;27.31;52.15
71559;BME280;59382;43.852;25.952;2022-07-06T03:57:14;100873.69;;;27.36;51.99
71559;BME280;59382;43.852;25.952;2022-07-06T03:59:40;100876.81;;;27.52;51.53
71559;BME280;59382;43.852;25.952;2022-07-06T04:02:05;100888.09;;;27.55;51.76
71559;BME280;59382;43.852;25.952;2022-07-06T04:04:33;100880.44;;;27.52;51.76
71559;BME280;59382;43.852;25.952;2022-07-06T04:06:58;100891.53;;;27.61;51.64
71559;BME280;59382;43.852;25.952;2022-07-06T04:09:24;100888.59;;;27.57;51.41
71559;BME280;59382;43.852;25.952;2022-07-06T04:11:49;100904.44;;;27.65;51.65
71559;BME280;59382;43.852;25.952;2022-07-06T04:14:15;100891.34;;;27.57;51.42
71559;BME280;59382;43.852;25.952;2022-07-06T04:16:40;100888.59;;;27.57;51.35
71559;BME280;59382;43.852;25.952;2022-07-06T04:19:06;100896.09;;;27.57;51.49
71559;BME280;59382;43.852;25.952;2022-07-06T04:21:32;100897.19;;;27.47;51.84
71559;BME280;59382;43.852;25.952;2022-07-06T04:23:57;100894.66;;;27.29;52.19
71559;BME280;59382;43.852;25.952;2022-07-06T04:26:23;100903.47;;;27.31;52.28
71559;BME280;59382;43.852;25.952;2022-07-06T04:28:48;100904.28;;;27.31;52.27
71559;BME280;59382;43.852;25.952;2022-07-06T04:31:14;100908.56;;;27.37;51.74
71559;BME280;59382;43.852;25.952;2022-07-06T04:33:41;100893.19;;;27.31;52.15
71559;BME280;59382;43.852;25.952;2022-07-06T04:36:08;100910.03;;;27.35;52.05
71559;BME280;59382;43.852;25.952;2022-07-06T04:38:34;100902.81;;;27.34;51.77
71559;BME280;59382;43.852;25.952;2022-07-06T04:41:02;100913.09;;;27.33;52.10
71559;BME280;59382;43.852;25.952;2022-07-06T04:43:29;100919.97;;;27.36;52.10
71559;BME280;59382;43.852;25.952;2022-07-06T04:45:54;100916.34;;;27.35;51.98
71559;BME280;59382;43.852;25.952;2022-07-06T04:48:20;100908.69;;;27.32;52.12
71559;BME280;59382;43.852;25.952;2022-07-06T04:50:45;100910.19;;;27.38;52.08
71559;BME280;59382;43.852;25.952;2022-07-06T04:53:11;100914.72;;;27.34;52.10
71559;BME280;59382;43.852;25.952;2022-07-06T04:55:36;100918.66;;;27.33;52.13
71559;BME280;59382;43.852;25.952;2022-07-06T04:58:02;100911.44;;;27.32;52.46
71559;BME280;59382;43.852;25.952;2022-07-06T05:00:28;100900.63;;;27.22;52.24
71559;BME280;59382;43.852;25.952;2022-07-06T05:02:53;100913.59;;;27.35;52.27
71559;BME280;59382;43.852;25.952;2022-07-06T05:05:19;100909.53;;;27.41;52.04
71559;BME280;59382;43.852;25.952;2022-07-06T05:07:44;100906.66;;;27.46;52.10
71559;BME280;59382;43.852;25.952;2022-07-06T05:10:11;100912.19;;;27.46;52.03
71559;BME280;59382;43.852;25.952;2022-07-06T05:12:37;100905.03;;;27.45;52.18
71559;BME280;59382;43.852;25.952;2022-07-06T05:15:04;100916.09;;;27.45;52.73
71559;BME280;59382;43.852;25.952;2022-07-06T05:17:31;100914.34;;;27.58;51.97
71559;BME280;59382;43.852;25.952;2022-07-06T05:19:57;100910.75;;;27.57;51.89
71559;BME280;59382;43.852;25.952;2022-07-06T05:22:22;100919.28;;;27.69;51.85
71559;BME280;59382;43.852;25.952;2022-07-06T05:24:50;100930.91;;;27.80;51.50
71559;BME280;59382;43.852;25.952;2022-07-06T05:27:15;100927.34;;;27.79;51.40
71559;BME280;59382;43.852;25.952;2022-07-06T05:29:41;100926.72;;;27.82;51.28
71559;BME280;59382;43.852;25.952;2022-07-06T05:32:07;100933.28;;;27.86;51.20
71559;BME280;59382;43.852;25.952;2022-07-06T05:34:32;100940.31;;;27.92;50.64
71559;BME280;59382;43.852;25.952;2022-07-06T05:36:58;100946.53;;;27.98;51.00
71559;BME280;59382;43.852;25.952;2022-07-06T05:39:24;100951.28;;;27.97;50.76
71559;BME280;59382;43.852;25.952;2022-07-06T05:41:49;100942.25;;;27.92;50.79
71559;BME280;59382;43.852;25.952;2022-07-06T05:44:15;100955.81;;;27.93;50.96
71559;BME280;59382;43.852;25.952;2022-07-06T05:46:41;100926.72;;;27.82;50.89
71559;BME280;59382;43.852;25.952;2022-07-06T05:49:06;100946.06;;;28.04;50.63
71559;BME280;59382;43.852;25.952;2022-07-06T05:51:50;100960.78;;;28.13;50.78
71559;BME280;59382;43.852;25.952;2022-07-06T05:54:16;100962.94;;;28.25;50.50
71559;BME280;59382;43.852;25.952;2022-07-06T05:56:41;100968.16;;;28.35;50.21
71559;BME280;59382;43.852;25.952;2022-07-06T05:59:07;100956.28;;;28.34;50.34
71559;BME280;59382;43.852;25.952;2022-07-06T06:01:33;100965.28;;;28.48;50.16
71559;BME280;59382;43.852;25.952;2022-07-06T06:03:58;100952.56;;;28.56;49.85
71559;BME280;59382;43.852;25.952;2022-07-06T06:06:27;100945.75;;;28.79;49.45
71559;BME280;59382;43.852;25.952;2022-07-06T06:08:53;100961.25;;;29.31;48.70
71559;BME280;59382;43.852;25.952;2022-07-06T06:11:18;100967.22;;;29.67;48.13
71559;BME280;59382;43.852;25.952;2022-07-06T06:13:44;100958.09;;;29.96;47.46
71559;BME280;59382;43.852;25.952;2022-07-06T06:16:09;100966.78;;;30.32;46.93
71559;BME280;59382;43.852;25.952;2022-07-06T06:18:35;100956.00;;;30.51;46.40
71559;BME280;59382;43.852;25.952;2022-07-06T06:21:00;100965.72;;;30.74;45.85
71559;BME280;59382;43.852;25.952;2022-07-06T06:23:26;100968.19;;;30.88;45.43
71559;BME280;59382;43.852;25.952;2022-07-06T06:25:52;100965.19;;;31.13;45.22
71559;BME280;59382;43.852;25.952;2022-07-06T06:28:17;100968.50;;;31.27;44.67
71559;BME280;59382;43.852;25.952;2022-07-06T06:30:43;100954.16;;;31.37;44.32
71559;BME280;59382;43.852;25.952;2022-07-06T06:35:34;100962.38;;;31.78;43.44
71559;BME280;59382;43.852;25.952;2022-07-06T06:38:00;100950.75;;;31.76;43.61
71559;BME280;59382;43.852;25.952;2022-07-06T06:40:26;100960.09;;;31.92;43.30
71559;BME280;59382;43.852;25.952;2022-07-06T06:42:53;100957.19;;;32.01;42.94
71559;BME280;59382;43.852;25.952;2022-07-06T06:45:19;100962.44;;;32.14;42.69
71559;BME280;59382;43.852;25.952;2022-07-06T06:47:45;100962.91;;;32.16;42.57
71559;BME280;59382;43.852;25.952;2022-07-06T06:50:10;100954.31;;;32.09;42.82
71559;BME280;59382;43.852;25.952;2022-07-06T06:52:36;100954.75;;;32.11;43.06
71559;BME280;59382;43.852;25.952;2022-07-06T06:55:01;100956.63;;;32.32;42.85
71559;BME280;59382;43.852;25.952;2022-07-06T06:57:27;100948.00;;;32.37;42.19
71559;BME280;59382;43.852;25.952;2022-07-06T06:59:54;100949.06;;;32.44;42.63
71559;BME280;59382;43.852;25.952;2022-07-06T07:02:20;100934.28;;;32.44;42.45
71559;BME280;59382;43.852;25.952;2022-07-06T07:04:46;100953.22;;;32.62;42.10
71559;BME280;59382;43.852;25.952;2022-07-06T07:07:11;100956.13;;;32.66;42.05
71559;BME280;59382;43.852;25.952;2022-07-06T07:09:37;100956.56;;;32.68;42.01
71559;BME280;59382;43.852;25.952;2022-07-06T07:12:03;100945.16;;;32.73;41.98
71559;BME280;59382;43.852;25.952;2022-07-06T07:14:28;100960.25;;;32.84;41.80
71559;BME280;59382;43.852;25.952;2022-07-06T07:16:54;100953.03;;;32.95;41.54
71559;BME280;59382;43.852;25.952;2022-07-06T07:19:23;100956.41;;;33.00;41.50
71559;BME280;59382;43.852;25.952;2022-07-06T07:21:48;100958.91;;;33.05;41.42
71559;BME280;59382;43.852;25.952;2022-07-06T07:24:14;100958.84;;;33.02;40.81
71559;BME280;59382;43.852;25.952;2022-07-06T07:26:39;100960.16;;;32.92;41.29
71559;BME280;59382;43.852;25.952;2022-07-06T07:29:05;100969.25;;;32.77;41.08
71559;BME280;59382;43.852;25.952;2022-07-06T07:31:31;100958.22;;;32.69;40.75
71559;BME280;59382;43.852;25.952;2022-07-06T07:33:56;100965.38;;;32.82;40.65
71559;BME280;59382;43.852;25.952;2022-07-06T07:36:24;100955.63;;;32.88;40.90
71559;BME280;59382;43.852;25.952;2022-07-06T07:38:51;100963.91;;;33.12;40.91
71559;BME280;59382;43.852;25.952;2022-07-06T07:41:17;100964.56;;;33.21;40.33
71559;BME280;59382;43.852;25.952;2022-07-06T07:43:43;100961.25;;;33.31;40.21
71559;BME280;59382;43.852;25.952;2022-07-06T07:46:09;100962.69;;;33.25;40.39
71559;BME280;59382;43.852;25.952;2022-07-06T07:48:35;100973.03;;;33.24;40.76
71559;BME280;59382;43.852;25.952;2022-07-06T07:51:00;100951.50;;;33.25;40.50
71559;BME280;59382;43.852;25.952;2022-07-06T07:53:26;100960.53;;;33.34;40.19
71559;BME280;59382;43.852;25.952;2022-07-06T07:55:52;100956.34;;;33.40;40.32
71559;BME280;59382;43.852;25.952;2022-07-06T07:58:17;100958.00;;;33.56;39.94
71559;BME280;59382;43.852;25.952;2022-07-06T08:00:44;100953.59;;;33.71;39.73
71559;BME280;59382;43.852;25.952;2022-07-06T08:03:10;100956.75;;;33.85;39.18
71559;BME280;59382;43.852;25.952;2022-07-06T08:05:43;100945.81;;;33.80;39.33
71559;BME280;59382;43.852;25.952;2022-07-06T08:08:20;100949.28;;;33.89;39.32
71559;BME280;59382;43.852;25.952;2022-07-06T08:10:45;100958.31;;;33.98;38.76
71559;BME280;59382;43.852;25.952;2022-07-06T08:13:23;100951.25;;;34.04;38.57
71559;BME280;59382;43.852;25.952;2022-07-06T08:15:51;100948.09;;;34.06;38.64
71559;BME280;59382;43.852;25.952;2022-07-06T08:18:17;100967.34;;;34.07;38.37
71559;BME280;59382;43.852;25.952;2022-07-06T08:20:43;100959.28;;;34.21;38.20
71559;BME280;59382;43.852;25.952;2022-07-06T08:23:09;100959.00;;;34.26;38.11
71559;BME280;59382;43.852;25.952;2022-07-06T08:25:34;100961.91;;;34.14;37.62
71559;BME280;59382;43.852;25.952;2022-07-06T08:28:00;100967.19;;;34.00;38.29
71559;BME280;59382;43.852;25.952;2022-07-06T08:30:26;100954.53;;;34.06;38.32
71559;BME280;59382;43.852;25.952;2022-07-06T08:32:52;100969.22;;;34.34;37.62
71559;BME280;59382;43.852;25.952;2022-07-06T08:35:17;100957.19;;;34.49;36.86
71559;BME280;59382;43.852;25.952;2022-07-06T08:37:43;100934.03;;;34.52;36.69
71559;BME280;59382;43.852;25.952;2022-07-06T08:40:09;100953.09;;;34.81;36.19
71559;BME280;59382;43.852;25.952;2022-07-06T08:42:35;100957.13;;;34.84;35.76
71559;BME280;59382;43.852;25.952;2022-07-06T08:45:03;100951.47;;;34.80;35.89
71559;BME280;59382;43.852;25.952;2022-07-06T08:47:30;100958.06;;;34.88;35.75
71559;BME280;59382;43.852;25.952;2022-07-06T08:49:56;100954.34;;;34.84;35.49
71559;BME280;59382;43.852;25.952;2022-07-06T08:52:25;100945.13;;;34.83;35.84
71559;BME280;59382;43.852;25.952;2022-07-06T08:54:51;100968.47;;;34.87;35.47
71559;BME280;59382;43.852;25.952;2022-07-06T08:57:17;100957.81;;;34.77;35.89
71559;BME280;59382;43.852;25.952;2022-07-06T08:59:43;100966.03;;;34.70;36.05
71559;BME280;59382;43.852;25.952;2022-07-06T09:02:13;100967.25;;;34.69;36.04
71559;BME280;59382;43.852;25.952;2022-07-06T09:04:39;100967.50;;;34.64;36.15
71559;BME280;59382;43.852;25.952;2022-07-06T09:07:07;100969.28;;;34.53;35.98
71559;BME280;59382;43.852;25.952;2022-07-06T09:09:33;100960.25;;;34.44;36.23
71559;BME280;59382;43.852;25.952;2022-07-06T09:12:02;100964.75;;;34.33;36.26
71559;BME280;59382;43.852;25.952;2022-07-06T09:14:28;100964.44;;;34.19;36.39
71559;BME280;59382;43.852;25.952;2022-07-06T09:17:05;100961.81;;;34.11;35.98
71559;BME280;59382;43.852;25.952;2022-07-06T09:19:32;100962.63;;;34.11;36.52
71559;BME280;59382;43.852;25.952;2022-07-06T09:22:02;100960.13;;;34.06;36.85
71559;BME280;59382;43.852;25.952;2022-07-06T09:24:28;100964.00;;;34.02;36.74
71559;BME280;59382;43.852;25.952;2022-07-06T09:26:58;100974.28;;;33.97;37.04
71559;BME280;59382;43.852;25.952;2022-07-06T09:29:31;100965.53;;;33.83;37.12
71559;BME280;59382;43.852;25.952;2022-07-06T09:32:02;100961.72;;;33.76;37.23
71559;BME280;59382;43.852;25.952;2022-07-06T09:34:45;100959.47;;;33.81;37.16
71559;BME280;59382;43.852;25.952;2022-07-06T09:37:11;100960.91;;;33.75;37.01
71559;BME280;59382;43.852;25.952;2022-07-06T09:39:37;100971.38;;;33.78;37.05
71559;BME280;59382;43.852;25.952;2022-07-06T09:42:05;100959.63;;;33.57;37.25
71559;BME280;59382;43.852;25.952;2022-07-06T09:44:35;100975.50;;;33.53;37.49
71559;BME280;59382;43.852;25.952;2022-07-06T09:47:09;100970.19;;;33.36;38.03
71559;BME280;59382;43.852;25.952;2022-07-06T09:49:36;100978.75;;;33.28;38.36
71559;BME280;59382;43.852;25.952;2022-07-06T09:52:04;100960.34;;;33.27;37.96
71559;BME280;59382;43.852;25.952;2022-07-06T09:54:30;100968.00;;;33.42;37.85
71559;BME280;59382;43.852;25.952;2022-07-06T09:56:56;100965.22;;;33.57;37.70
71559;BME280;59382;43.852;25.952;2022-07-06T09:59:25;100974.78;;;33.72;37.70
71559;BME280;59382;43.852;25.952;2022-07-06T10:01:56;100956.84;;;33.73;36.89
71559;BME280;59382;43.852;25.952;2022-07-06T10:04:24;100960.28;;;33.82;36.73
71559;BME280;59382;43.852;25.952;2022-07-06T10:06:50;100964.22;;;33.81;36.78
71559;BME280;59382;43.852;25.952;2022-07-06T10:09:18;100956.84;;;33.73;36.70
71559;BME280;59382;43.852;25.952;2022-07-06T10:11:50;100941.50;;;33.67;36.69
71559;BME280;59382;43.852;25.952;2022-07-06T10:14:18;100942.28;;;33.67;36.92
71559;BME280;59382;43.852;25.952;2022-07-06T10:16:45;100951.03;;;33.66;36.95
71559;BME280;59382;43.852;25.952;2022-07-06T10:19:11;100949.41;;;33.65;36.59
71559;BME280;59382;43.852;25.952;2022-07-06T10:21:39;100954.13;;;33.61;36.35
71559;BME280;59382;43.852;25.952;2022-07-06T10:24:06;100944.66;;;33.65;36.36
71559;BME280;59382;43.852;25.952;2022-07-06T10:26:34;100948.34;;;33.54;36.65
71559;BME280;59382;43.852;25.952;2022-07-06T10:29:01;100942.09;;;33.60;36.56
71559;BME280;59382;43.852;25.952;2022-07-06T10:31:28;100953.22;;;33.57;36.50
71559;BME280;59382;43.852;25.952;2022-07-06T10:33:56;100948.78;;;33.56;36.99
71559;BME280;59382;43.852;25.952;2022-07-06T10:36:22;100944.25;;;33.51;36.51
71559;BME280;59382;43.852;25.952;2022-07-06T10:38:50;100919.31;;;33.31;36.72
71559;BME280;59382;43.852;25.952;2022-07-06T10:41:17;100949.81;;;33.36;36.77
71559;BME280;59382;43.852;25.952;2022-07-06T10:43:45;100937.25;;;33.30;37.08
71559;BME280;59382;43.852;25.952;2022-07-06T10:46:13;100936.44;;;33.29;36.51
71559;BME280;59382;43.852;25.952;2022-07-06T10:48:43;100947.75;;;33.33;36.28
71559;BME280;59382;43.852;25.952;2022-07-06T10:51:23;100943.06;;;33.37;36.39
71559;BME280;59382;43.852;25.952;2022-07-06T10:53:59;100943.09;;;33.25;36.75
71559;BME280;59382;43.852;25.952;2022-07-06T10:56:36;100932.44;;;33.15;37.07
71559;BME280;59382;43.852;25.952;2022-07-06T10:59:08;100938.03;;;33.15;37.00
71559;BME280;59382;43.852;25.952;2022-07-06T11:01:34;100934.78;;;33.13;37.01
71559;BME280;59382;43.852;25.952;2022-07-06T11:06:31;100933.50;;;33.10;36.96
71559;BME280;59382;43.852;25.952;2022-07-06T11:09:00;100932.59;;;33.06;37.30
71559;BME280;59382;43.852;25.952;2022-07-06T11:11:26;100938.09;;;33.03;36.73
71559;BME280;59382;43.852;25.952;2022-07-06T11:14:10;100923.28;;;33.02;36.53
71559;BME280;59382;43.852;25.952;2022-07-06T11:16:38;100932.50;;;33.03;36.81
71559;BME280;59382;43.852;25.952;2022-07-06T11:19:17;100925.88;;;32.95;36.26
71559;BME280;59382;43.852;25.952;2022-07-06T11:21:47;100924.81;;;33.00;36.62
71559;BME280;59382;43.852;25.952;2022-07-06T11:24:19;100927.63;;;33.00;36.31
71559;BME280;59382;43.852;25.952;2022-07-06T11:26:50;100908.66;;;32.81;36.28
71559;BME280;59382;43.852;25.952;2022-07-06T11:29:18;100921.38;;;32.91;36.10
71559;BME280;59382;43.852;25.952;2022-07-06T11:31:47;100923.34;;;32.90;36.35
71559;BME280;59382;43.852;25.952;2022-07-06T11:34:18;100899.25;;;32.86;36.33
71559;BME280;59382;43.852;25.952;2022-07-06T11:36:44;100904.22;;;32.92;36.36
71559;BME280;59382;43.852;25.952;2022-07-06T11:39:10;100903.34;;;32.88;36.17
71559;BME280;59382;43.852;25.952;2022-07-06T11:41:35;100900.19;;;32.78;36.33
71559;BME280;59382;43.852;25.952;2022-07-06T11:44:02;100903.06;;;32.81;36.24
71559;BME280;59382;43.852;25.952;2022-07-06T11:46:32;100900.88;;;32.87;35.42
71559;BME280;59382;43.852;25.952;2022-07-06T11:49:06;100893.06;;;32.80;35.69
71559;BME280;59382;43.852;25.952;2022-07-06T11:51:34;100893.53;;;32.82;35.92
71559;BME280;59382;43.852;25.952;2022-07-06T11:54:13;100880.16;;;32.76;35.68
71559;BME280;59382;43.852;25.952;2022-07-06T11:56:46;100888.44;;;32.72;36.25
71559;BME280;59382;43.852;25.952;2022-07-06T11:59:13;100892.53;;;32.75;36.33
71559;BME280;59382;43.852;25.952;2022-07-06T12:01:39;100877.88;;;32.66;36.24
71559;BME280;59382;43.852;25.952;2022-07-06T12:04:09;100881.34;;;32.75;36.25
71559;BME280;59382;43.852;25.952;2022-07-06T12:06:35;100881.34;;;32.75;36.23
71559;BME280;59382;43.852;25.952;2022-07-06T12:09:02;100886.31;;;32.81;36.54
71559;BME280;59382;43.852;25.952;2022-07-06T12:11:35;100890.03;;;32.85;36.37
71559;BME280;59382;43.852;25.952;2022-07-06T12:14:11;100879.34;;;32.75;35.90
71559;BME280;59382;43.852;25.952;2022-07-06T12:16:40;100880.88;;;32.73;36.59
71559;BME280;59382;43.852;25.952;2022-07-06T12:19:09;100865.53;;;32.67;36.65
71559;BME280;59382;43.852;25.952;2022-07-06T12:21:42;100878.78;;;32.70;36.64
71559;BME280;59382;43.852;25.952;2022-07-06T12:24:08;100860.44;;;32.57;37.45
71559;BME280;59382;43.852;25.952;2022-07-06T12:26:40;100876.97;;;32.62;36.85
71559;BME280;59382;43.852;25.952;2022-07-06T12:29:08;100873.59;;;32.56;36.88
71559;BME280;59382;43.852;25.952;2022-07-06T12:31:44;100850.03;;;32.42;37.00
71559;BME280;59382;43.852;25.952;2022-07-06T12:34:17;100862.38;;;32.41;37.17
71559;BME280;59382;43.852;25.952;2022-07-06T12:39:18;100864.81;;;32.42;37.06
71559;BME280;59382;43.852;25.952;2022-07-06T12:41:49;100868.03;;;32.44;36.46
71559;BME280;59382;43.852;25.952;2022-07-06T12:44:20;100853.53;;;32.39;36.52
71559;BME280;59382;43.852;25.952;2022-07-06T12:46:48;100848.41;;;32.41;36.73
71559;BME280;59382;43.852;25.952;2022-07-06T12:49:21;100854.78;;;32.41;37.24